Flight Track Log - Related Links

Times and Time Zones

All times are in EDT time to prevent confusion due to time zone crossing. See the N755HF flight status page for this flight to view local times or setup timezone preferences in your user account.

Time Position Orientation Groundspeed Altitude Reporting Facility
EDT Latitude Longitude Course Direction KTS MPH feet Rate Location/Type
Fri 06:24:32 PM 36.5731 -108.4125 229° Southwest 189 217 15,100  Level Denver Center
Fri 06:25:32 PM 36.5389 -108.4608 227° Southwest 189 217 16,100 1,100 Climbing Denver Center
Fri 06:26:32 PM 36.5006 -108.5114 225° Southwest 189 217 17,300 1,100 Climbing Denver Center
Fri 06:27:32 PM 36.4644 -108.5567 230° Southwest 184 212 18,300 950 Climbing Denver Center
Fri 06:28:32 PM 36.4386 -108.5947 225° Southwest 184 212 19,200 850 Climbing Denver Center
Fri 06:29:32 PM 36.4044 -108.6375 229° Southwest 184 212 20,000 400 Climbing Denver Center
Fri 06:30:32 PM 36.3658 -108.6931 226° Southwest 195 224 20,000  Level Denver Center
Fri 06:31:32 PM 36.3253 -108.7458 226° Southwest 206 237 20,000  Level Denver Center
Fri 06:32:32 PM 36.2867 -108.7961 228° Southwest 218 251 20,000  Level Denver Center
Fri 06:33:32 PM 36.2394 -108.8614 226° Southwest 218 251 20,000  Level Denver Center
Fri 06:34:32 PM 36.1944 -108.9192 226° Southwest 228 262 20,000  Level Denver Center
Fri 06:35:32 PM 36.1539 -108.9717 227° Southwest 240 276 20,000  Level Denver Center
Fri 06:36:32 PM 36.1044 -109.0369 225° Southwest 240 276 20,000  Level Denver Center
Fri 06:37:32 PM 36.0594 -109.0917 228° Southwest 235 270 20,000  Level Denver Center
Fri 06:38:32 PM 36.0208 -109.1442 225° Southwest 235 270 20,000  Level Denver Center
Fri 06:40:12 PM 35.9453 -109.2367 227° Southwest 219 252 20,000  Level Albuquerque Center
Fri 06:41:12 PM 35.9028 -109.2922 227° Southwest 219 252 20,000  Level Albuquerque Center
Fri 06:42:12 PM 35.8644 -109.3425 226° Southwest 224 258 20,000  Level Albuquerque Center
Fri 06:43:12 PM 35.8194 -109.4003 226° Southwest 229 264 20,000  Level Albuquerque Center
Fri 06:44:12 PM 35.7725 -109.4606 226° Southwest 229 264 20,000  Level Albuquerque Center
Fri 06:45:12 PM 35.7300 -109.5156 226° Southwest 234 269 20,000  Level Albuquerque Center
Fri 06:46:12 PM 35.6892 -109.5683 225° Southwest 234 269 20,000  Level Albuquerque Center
Fri 06:47:12 PM 35.6403 -109.6283 228° Southwest 234 269 20,000  Level Albuquerque Center
Fri 06:48:12 PM 35.5994 -109.6833 226° Southwest 234 269 20,000  Level Albuquerque Center
Fri 06:49:12 PM 35.5544 -109.7408 227° Southwest 234 269 20,000  Level Albuquerque Center
Fri 06:50:12 PM 35.5181 -109.7881 226° Southwest 234 269 20,000  Level Albuquerque Center
Fri 06:51:12 PM 35.4711 -109.8478 226° Southwest 234 269 20,000  Level Albuquerque Center
Fri 06:52:12 PM 35.4281 -109.9025 225° Southwest 234 269 20,000  Level Albuquerque Center
Fri 06:53:12 PM 35.3831 -109.9572 225° Southwest 234 269 20,000  Level Albuquerque Center
Fri 06:54:12 PM 35.3444 -110.0044 227° Southwest 234 269 20,000  Level Albuquerque Center
Fri 06:55:12 PM 35.2994 -110.0639 234° Southwest 228 262 20,000  Level Albuquerque Center
Fri 06:56:12 PM 35.2625 -110.1264 235° Southwest 222 255 20,000  Level Albuquerque Center
Fri 06:57:12 PM 35.2278 -110.1861 236° Southwest 222 255 20,000  Level Albuquerque Center
Fri 06:58:12 PM 35.1972 -110.2411 234° Southwest 222 255 20,000  Level Albuquerque Center
Fri 06:59:12 PM 35.1558 -110.3106 234° Southwest 222 255 20,000  Level Albuquerque Center
Fri 07:00:12 PM 35.1208 -110.3703 234° Southwest 222 255 20,000  Level Albuquerque Center
Fri 07:01:12 PM 35.0883 -110.4250 234° Southwest 222 255 20,000  Level Albuquerque Center
Fri 07:02:12 PM 35.0533 -110.4844 234° Southwest 227 261 20,000  Level Albuquerque Center
Fri 07:03:12 PM 35.0139 -110.5517 237° Southwest 221 254 20,000  Level Albuquerque Center
Fri 07:04:12 PM 34.9811 -110.6136 234° Southwest 221 254 20,000  Level Albuquerque Center
Fri 07:05:12 PM 34.9483 -110.6681 225° Southwest 221 254 20,000 -150 Level Albuquerque Center
Fri 07:06:12 PM 34.9028 -110.7244 227° Southwest 232 267 19,700 -400 Descending Albuquerque Center
Fri 07:07:12 PM 34.8486 -110.7956 220° Southwest 251 289 19,200 -450 Descending Albuquerque Center
Fri 07:08:12 PM 34.7969 -110.8492 223° Southwest 256 295 18,800 -450 Descending Albuquerque Center
Fri 07:09:12 PM 34.7453 -110.9075 222° Southwest 256 295 18,300 -500 Descending Albuquerque Center
Fri 07:10:12 PM 34.6936 -110.9633 223° Southwest 251 289 17,800 -500 Descending Albuquerque Center
Fri 07:11:12 PM 34.6417 -111.0217 222° Southwest 251 289 17,300 -350 Descending Albuquerque Center
Fri 07:12:12 PM 34.5878 -111.0797 221° Southwest 251 289 17,100 -350 Descending Albuquerque Center
Fri 07:13:12 PM 34.5444 -111.1258 223° Southwest 251 289 16,600 -700 Descending Albuquerque Center
Fri 07:14:12 PM 34.4861 -111.1911 221° Southwest 251 289 15,700 -700 Descending Albuquerque Center
Fri 07:15:12 PM 34.4342 -111.2467 220° Southwest 251 289 15,200 -600 Descending Albuquerque Center
Fri 07:16:12 PM 34.3803 -111.3019 223° Southwest 251 289 14,500 -750 Descending Albuquerque Center
Fri 07:17:12 PM 34.3283 -111.3597 221° Southwest 251 289 13,700 -750 Descending Albuquerque Center
Fri 07:18:12 PM 34.2742 -111.4175 221° Southwest 251 289 13,000 -700 Descending Albuquerque Center
Fri 07:19:12 PM 34.2200 -111.4750 221° Southwest 251 289 12,300 -750 Descending Albuquerque Center
Fri 07:20:12 PM 34.1594 -111.5397 221° Southwest 256 295 11,500 -800 Descending Albuquerque Center
Fri 07:21:12 PM 34.1053 -111.5972 221° Southwest 256 295 10,700 -950 Descending Albuquerque Center
Fri 07:22:12 PM 34.0508 -111.6547 207° Southwest 256 295 9,600 -1,150 Descending Albuquerque Center
Fri 07:23:12 PM 33.9869 -111.6939 210° Southwest 262 302 8,400 -1,200 Descending Albuquerque Center
Fri 07:24:12 PM 33.9333 -111.7311 205° Southwest 262 302 7,200 -1,300 Descending Albuquerque Center
Fri 07:25:12 PM 33.8758 -111.7633 231° Southwest 250 288 5,800 -1,200 Descending Albuquerque Center
Fri 07:26:12 PM 33.8450 -111.8092 245° Southwest 217 250 4,800 -1,000 Descending Albuquerque Center
Fri 07:33:15 PM 33.8167 -111.8833 277° West  Level FlightAware Approximate
Fri 07:34:15 PM 33.8237 -111.9552 97° East  Level Estimated
Fri 07:35:15 PM 33.8167 -111.8833 97° East  Level FlightAware Approximate

Login

Don't have an account? Register now (free) for customized features, flight alerts, and more!